sensor_id;sensor_type;location;lat;lon;timestamp;temperature;humidity
32895;DHT22;19251;49.484;8.260;2023-06-24T00:08:26;20.40;14.90
32895;DHT22;19251;49.484;8.260;2023-06-24T00:23:44;20.10;15.60
32895;DHT22;19251;49.484;8.260;2023-06-24T00:38:59;19.90;16.40
32895;DHT22;19251;49.484;8.260;2023-06-24T00:59:18;19.70;17.20
32895;DHT22;19251;49.484;8.260;2023-06-24T01:04:21;19.60;17.10
32895;DHT22;19251;49.484;8.260;2023-06-24T01:09:24;19.50;17.40
32895;DHT22;19251;49.484;8.260;2023-06-24T01:30:38;19.10;17.70
32895;DHT22;19251;49.484;8.260;2023-06-24T01:35:45;19.10;18.10
32895;DHT22;19251;49.484;8.260;2023-06-24T01:40:50;19.00;18.20
32895;DHT22;19251;49.484;8.260;2023-06-24T01:45:56;18.90;18.40
32895;DHT22;19251;49.484;8.260;2023-06-24T01:51:18;18.90;18.70
32895;DHT22;19251;49.484;8.260;2023-06-24T01:56:23;18.80;18.70
32895;DHT22;19251;49.484;8.260;2023-06-24T02:01:28;18.70;19.00
32895;DHT22;19251;49.484;8.260;2023-06-24T02:06:31;18.60;19.00
32895;DHT22;19251;49.484;8.260;2023-06-24T02:16:37;18.60;18.90
32895;DHT22;19251;49.484;8.260;2023-06-24T02:21:42;18.50;19.70
32895;DHT22;19251;49.484;8.260;2023-06-24T02:26:46;18.40;19.70
32895;DHT22;19251;49.484;8.260;2023-06-24T02:31:49;18.40;19.60
32895;DHT22;19251;49.484;8.260;2023-06-24T02:41:54;18.30;19.70
32895;DHT22;19251;49.484;8.260;2023-06-24T02:51:59;18.20;20.20
32895;DHT22;19251;49.484;8.260;2023-06-24T02:57:03;18.20;20.30
32895;DHT22;19251;49.484;8.260;2023-06-24T03:32:30;17.90;20.80
32895;DHT22;19251;49.484;8.260;2023-06-24T03:42:35;17.80;21.00
32895;DHT22;19251;49.484;8.260;2023-06-24T04:12:55;17.70;21.90
32895;DHT22;19251;49.484;8.260;2023-06-24T04:17:57;17.70;22.40
32895;DHT22;19251;49.484;8.260;2023-06-24T04:28:03;17.80;22.10
32895;DHT22;19251;49.484;8.260;2023-06-24T04:48:17;18.00;22.70
32895;DHT22;19251;49.484;8.260;2023-06-24T04:53:20;18.00;23.10
32895;DHT22;19251;49.484;8.260;2023-06-24T05:03:25;18.20;23.00
32895;DHT22;19251;49.484;8.260;2023-06-24T05:08:27;18.30;23.60
32895;DHT22;19251;49.484;8.260;2023-06-24T05:38:45;19.40;23.80
32895;DHT22;19251;49.484;8.260;2023-06-24T05:43:47;19.60;23.80
32895;DHT22;19251;49.484;8.260;2023-06-24T05:58:55;20.30;23.80
32895;DHT22;19251;49.484;8.260;2023-06-24T06:09:00;20.80;23.80
32895;DHT22;19251;49.484;8.260;2023-06-24T06:19:05;21.50;23.00
32895;DHT22;19251;49.484;8.260;2023-06-24T06:34:13;22.50;21.40
32895;DHT22;19251;49.484;8.260;2023-06-24T06:44:18;23.20;20.00
32895;DHT22;19251;49.484;8.260;2023-06-24T06:59:27;24.10;19.50
32895;DHT22;19251;49.484;8.260;2023-06-24T07:04:30;24.50;18.90
32895;DHT22;19251;49.484;8.260;2023-06-24T07:14:35;25.10;17.50
32895;DHT22;19251;49.484;8.260;2023-06-24T07:24:41;25.60;15.80
32895;DHT22;19251;49.484;8.260;2023-06-24T07:29:43;25.80;15.70
32895;DHT22;19251;49.484;8.260;2023-06-24T07:34:46;26.10;15.30
32895;DHT22;19251;49.484;8.260;2023-06-24T07:39:48;26.40;14.50
32895;DHT22;19251;49.484;8.260;2023-06-24T07:49:53;26.80;13.60
32895;DHT22;19251;49.484;8.260;2023-06-24T08:05:01;27.30;12.90
32895;DHT22;19251;49.484;8.260;2023-06-24T08:10:03;27.50;11.60
32895;DHT22;19251;49.484;8.260;2023-06-24T08:20:10;27.70;11.50
32895;DHT22;19251;49.484;8.260;2023-06-24T08:25:12;27.90;11.30
32895;DHT22;19251;49.484;8.260;2023-06-24T08:30:14;28.00;10.70
32895;DHT22;19251;49.484;8.260;2023-06-24T08:35:17;28.00;11.10
32895;DHT22;19251;49.484;8.260;2023-06-24T08:40:19;28.20;10.00
32895;DHT22;19251;49.484;8.260;2023-06-24T08:45:21;28.40;9.70
32895;DHT22;19251;49.484;8.260;2023-06-24T08:50:23;28.50;9.00
32895;DHT22;19251;49.484;8.260;2023-06-24T08:55:32;28.50;8.70
32895;DHT22;19251;49.484;8.260;2023-06-24T09:00:36;28.70;8.60
32895;DHT22;19251;49.484;8.260;2023-06-24T09:05:39;28.80;8.40
32895;DHT22;19251;49.484;8.260;2023-06-24T09:10:41;28.80;8.00
32895;DHT22;19251;49.484;8.260;2023-06-24T09:15:44;29.10;7.10
32895;DHT22;19251;49.484;8.260;2023-06-24T09:20:47;29.20;6.90
32895;DHT22;19251;49.484;8.260;2023-06-24T09:25:56;29.40;5.80
32895;DHT22;19251;49.484;8.260;2023-06-24T09:31:06;29.50;6.40
32895;DHT22;19251;49.484;8.260;2023-06-24T09:36:20;29.70;5.20
32895;DHT22;19251;49.484;8.260;2023-06-24T09:41:24;29.80;5.30
32895;DHT22;19251;49.484;8.260;2023-06-24T09:46:27;30.00;5.30
32895;DHT22;19251;49.484;8.260;2023-06-24T09:51:33;30.10;4.50
32895;DHT22;19251;49.484;8.260;2023-06-24T09:56:59;30.30;4.10
32895;DHT22;19251;49.484;8.260;2023-06-24T10:02:03;30.40;3.80
32895;DHT22;19251;49.484;8.260;2023-06-24T10:07:07;30.60;3.20
32895;DHT22;19251;49.484;8.260;2023-06-24T10:12:10;30.70;3.10
32895;DHT22;19251;49.484;8.260;2023-06-24T10:17:12;30.80;2.80
32895;DHT22;19251;49.484;8.260;2023-06-24T10:22:15;31.10;2.30
32895;DHT22;19251;49.484;8.260;2023-06-24T10:27:21;31.30;2.40
32895;DHT22;19251;49.484;8.260;2023-06-24T10:32:24;31.40;2.40
32895;DHT22;19251;49.484;8.260;2023-06-24T10:37:31;31.60;1.80
32895;DHT22;19251;49.484;8.260;2023-06-24T10:42:42;31.80;1.30
32895;DHT22;19251;49.484;8.260;2023-06-24T10:47:48;31.90;1.00
32895;DHT22;19251;49.484;8.260;2023-06-24T10:52:52;32.00;1.00
32895;DHT22;19251;49.484;8.260;2023-06-24T10:58:10;31.90;1.00
32895;DHT22;19251;49.484;8.260;2023-06-24T11:03:16;32.10;1.00
32895;DHT22;19251;49.484;8.260;2023-06-24T11:08:20;32.20;1.00
32895;DHT22;19251;49.484;8.260;2023-06-24T11:13:22;32.30;1.00
32895;DHT22;19251;49.484;8.260;2023-06-24T11:18:24;32.80;1.00
32895;DHT22;19251;49.484;8.260;2023-06-24T11:23:26;33.00;1.00
32895;DHT22;19251;49.484;8.260;2023-06-24T11:28:31;33.00;1.00
32895;DHT22;19251;49.484;8.260;2023-06-24T11:33:34;33.50;1.00
32895;DHT22;19251;49.484;8.260;2023-06-24T11:38:36;33.70;1.00
32895;DHT22;19251;49.484;8.260;2023-06-24T11:43:44;34.00;1.00
32895;DHT22;19251;49.484;8.260;2023-06-24T11:48:47;34.20;1.00
32895;DHT22;19251;49.484;8.260;2023-06-24T11:53:49;34.50;1.00
32895;DHT22;19251;49.484;8.260;2023-06-24T11:58:51;34.50;1.00
32895;DHT22;19251;49.484;8.260;2023-06-24T12:03:53;34.50;1.00
32895;DHT22;19251;49.484;8.260;2023-06-24T12:08:56;34.70;1.00
32895;DHT22;19251;49.484;8.260;2023-06-24T12:13:58;34.70;1.00
32895;DHT22;19251;49.484;8.260;2023-06-24T12:19:00;34.70;1.00
32895;DHT22;19251;49.484;8.260;2023-06-24T12:24:03;34.70;1.00
32895;DHT22;19251;49.484;8.260;2023-06-24T12:29:05;34.80;1.00
32895;DHT22;19251;49.484;8.260;2023-06-24T12:34:07;34.90;1.00
32895;DHT22;19251;49.484;8.260;2023-06-24T12:39:10;35.40;1.00
32895;DHT22;19251;49.484;8.260;2023-06-24T12:44:14;35.60;1.00
32895;DHT22;19251;49.484;8.260;2023-06-24T12:49:17;35.90;1.00
32895;DHT22;19251;49.484;8.260;2023-06-24T12:54:19;36.00;1.00
32895;DHT22;19251;49.484;8.260;2023-06-24T12:59:21;36.40;1.00
32895;DHT22;19251;49.484;8.260;2023-06-24T13:04:23;36.50;1.00
32895;DHT22;19251;49.484;8.260;2023-06-24T13:09:26;36.80;1.00
32895;DHT22;19251;49.484;8.260;2023-06-24T13:14:28;37.00;1.00
32895;DHT22;19251;49.484;8.260;2023-06-24T13:19:30;37.40;1.00
32895;DHT22;19251;49.484;8.260;2023-06-24T13:24:34;37.70;1.00
32895;DHT22;19251;49.484;8.260;2023-06-24T13:29:36;37.80;1.00
32895;DHT22;19251;49.484;8.260;2023-06-24T13:39:41;38.30;1.00
32895;DHT22;19251;49.484;8.260;2023-06-24T13:44:44;38.50;1.00
32895;DHT22;19251;49.484;8.260;2023-06-24T13:49:46;38.60;1.00
32895;DHT22;19251;49.484;8.260;2023-06-24T13:54:48;38.60;1.00
32895;DHT22;19251;49.484;8.260;2023-06-24T13:59:50;38.90;1.00
32895;DHT22;19251;49.484;8.260;2023-06-24T14:04:53;39.20;1.00
32895;DHT22;19251;49.484;8.260;2023-06-24T14:09:55;39.60;1.00
32895;DHT22;19251;49.484;8.260;2023-06-24T14:14:57;39.80;1.00
32895;DHT22;19251;49.484;8.260;2023-06-24T14:20:00;40.20;1.00
32895;DHT22;19251;49.484;8.260;2023-06-24T14:25:02;40.80;1.00
32895;DHT22;19251;49.484;8.260;2023-06-24T14:30:05;41.10;1.00
32895;DHT22;19251;49.484;8.260;2023-06-24T14:35:08;41.50;1.00
32895;DHT22;19251;49.484;8.260;2023-06-24T14:40:11;42.00;1.00
32895;DHT22;19251;49.484;8.260;2023-06-24T14:45:13;42.50;1.00
32895;DHT22;19251;49.484;8.260;2023-06-24T14:50:15;42.70;1.00
32895;DHT22;19251;49.484;8.260;2023-06-24T14:55:17;43.00;1.00
32895;DHT22;19251;49.484;8.260;2023-06-24T15:00:20;43.70;1.00
32895;DHT22;19251;49.484;8.260;2023-06-24T15:05:22;43.80;1.00
32895;DHT22;19251;49.484;8.260;2023-06-24T15:10:24;44.30;1.00
32895;DHT22;19251;49.484;8.260;2023-06-24T15:15:26;44.50;1.00
32895;DHT22;19251;49.484;8.260;2023-06-24T15:20:28;44.70;1.00
32895;DHT22;19251;49.484;8.260;2023-06-24T15:25:30;44.80;1.00
32895;DHT22;19251;49.484;8.260;2023-06-24T15:35:35;46.20;1.00
32895;DHT22;19251;49.484;8.260;2023-06-24T15:40:40;46.40;1.00
32895;DHT22;19251;49.484;8.260;2023-06-24T15:45:45;46.60;1.00
32895;DHT22;19251;49.484;8.260;2023-06-24T15:50:47;46.70;1.00
32895;DHT22;19251;49.484;8.260;2023-06-24T15:55:49;47.00;1.00
32895;DHT22;19251;49.484;8.260;2023-06-24T16:00:51;47.20;1.00
32895;DHT22;19251;49.484;8.260;2023-06-24T16:05:54;47.40;1.00
32895;DHT22;19251;49.484;8.260;2023-06-24T16:10:56;47.50;1.00
32895;DHT22;19251;49.484;8.260;2023-06-24T16:16:01;47.50;1.00
32895;DHT22;19251;49.484;8.260;2023-06-24T16:21:04;47.70;1.00
32895;DHT22;19251;49.484;8.260;2023-06-24T16:26:06;47.70;1.00
32895;DHT22;19251;49.484;8.260;2023-06-24T16:31:09;47.70;1.00
32895;DHT22;19251;49.484;8.260;2023-06-24T16:36:11;47.80;1.00
32895;DHT22;19251;49.484;8.260;2023-06-24T16:41:13;47.80;1.00
32895;DHT22;19251;49.484;8.260;2023-06-24T16:46:15;47.90;1.00
32895;DHT22;19251;49.484;8.260;2023-06-24T16:51:17;47.80;1.00
32895;DHT22;19251;49.484;8.260;2023-06-24T16:56:20;47.80;1.00
32895;DHT22;19251;49.484;8.260;2023-06-24T17:01:22;47.70;1.00
32895;DHT22;19251;49.484;8.260;2023-06-24T17:06:24;47.60;1.00
32895;DHT22;19251;49.484;8.260;2023-06-24T17:11:26;47.50;1.00
32895;DHT22;19251;49.484;8.260;2023-06-24T17:16:28;47.30;1.00
32895;DHT22;19251;49.484;8.260;2023-06-24T17:21:31;47.10;1.00
32895;DHT22;19251;49.484;8.260;2023-06-24T17:26:33;46.50;1.00
32895;DHT22;19251;49.484;8.260;2023-06-24T17:31:35;45.10;1.00
32895;DHT22;19251;49.484;8.260;2023-06-24T17:36:37;43.70;1.00
32895;DHT22;19251;49.484;8.260;2023-06-24T17:41:39;42.50;1.00
32895;DHT22;19251;49.484;8.260;2023-06-24T17:46:41;41.70;1.00
32895;DHT22;19251;49.484;8.260;2023-06-24T17:51:44;40.10;1.00
32895;DHT22;19251;49.484;8.260;2023-06-24T17:56:46;39.40;1.00
32895;DHT22;19251;49.484;8.260;2023-06-24T18:01:48;39.30;1.00
32895;DHT22;19251;49.484;8.260;2023-06-24T18:06:51;39.50;1.00
32895;DHT22;19251;49.484;8.260;2023-06-24T18:11:53;39.80;1.00
32895;DHT22;19251;49.484;8.260;2023-06-24T18:16:55;39.70;1.00
32895;DHT22;19251;49.484;8.260;2023-06-24T18:21:57;39.10;1.00
32895;DHT22;19251;49.484;8.260;2023-06-24T18:27:00;38.10;1.00
32895;DHT22;19251;49.484;8.260;2023-06-24T18:32:02;37.20;1.00
32895;DHT22;19251;49.484;8.260;2023-06-24T18:42:08;35.60;1.00
32895;DHT22;19251;49.484;8.260;2023-06-24T18:47:10;34.70;1.00
32895;DHT22;19251;49.484;8.260;2023-06-24T18:57:15;33.40;1.00
32895;DHT22;19251;49.484;8.260;2023-06-24T19:02:17;33.00;1.00
32895;DHT22;19251;49.484;8.260;2023-06-24T19:07:19;32.20;1.00
32895;DHT22;19251;49.484;8.260;2023-06-24T19:12:21;31.90;1.00
32895;DHT22;19251;49.484;8.260;2023-06-24T19:17:23;31.30;1.00
32895;DHT22;19251;49.484;8.260;2023-06-24T19:22:26;30.90;1.00
32895;DHT22;19251;49.484;8.260;2023-06-24T19:27:28;30.40;1.00
32895;DHT22;19251;49.484;8.260;2023-06-24T19:32:31;29.90;1.00
32895;DHT22;19251;49.484;8.260;2023-06-24T19:37:33;29.50;1.00
32895;DHT22;19251;49.484;8.260;2023-06-24T19:42:37;29.40;1.00
32895;DHT22;19251;49.484;8.260;2023-06-24T19:47:40;29.10;1.00
32895;DHT22;19251;49.484;8.260;2023-06-24T19:52:43;28.80;1.00
32895;DHT22;19251;49.484;8.260;2023-06-24T19:57:45;28.60;1.00
32895;DHT22;19251;49.484;8.260;2023-06-24T20:02:48;28.30;1.00
32895;DHT22;19251;49.484;8.260;2023-06-24T20:07:51;28.20;1.00
32895;DHT22;19251;49.484;8.260;2023-06-24T20:12:53;27.90;2.20
32895;DHT22;19251;49.484;8.260;2023-06-24T20:17:56;27.80;2.10
32895;DHT22;19251;49.484;8.260;2023-06-24T20:22:58;27.50;3.30
32895;DHT22;19251;49.484;8.260;2023-06-24T20:28:00;27.40;3.10
32895;DHT22;19251;49.484;8.260;2023-06-24T20:48:10;26.50;5.40
32895;DHT22;19251;49.484;8.260;2023-06-24T20:53:12;26.30;5.70
32895;DHT22;19251;49.484;8.260;2023-06-24T20:58:15;26.10;5.70
32895;DHT22;19251;49.484;8.260;2023-06-24T21:08:20;25.70;7.30
32895;DHT22;19251;49.484;8.260;2023-06-24T21:13:23;25.60;7.00
32895;DHT22;19251;49.484;8.260;2023-06-24T21:18:25;25.30;8.20
32895;DHT22;19251;49.484;8.260;2023-06-24T21:28:30;24.90;9.10
32895;DHT22;19251;49.484;8.260;2023-06-24T21:38:35;24.60;9.20
32895;DHT22;19251;49.484;8.260;2023-06-24T21:43:37;24.40;10.10
32895;DHT22;19251;49.484;8.260;2023-06-24T21:48:39;24.30;10.90
32895;DHT22;19251;49.484;8.260;2023-06-24T21:53:41;24.10;10.30
32895;DHT22;19251;49.484;8.260;2023-06-24T21:58:44;23.90;11.20
32895;DHT22;19251;49.484;8.260;2023-06-24T22:03:46;23.80;11.40
32895;DHT22;19251;49.484;8.260;2023-06-24T22:13:51;23.50;11.50
32895;DHT22;19251;49.484;8.260;2023-06-24T22:23:56;23.30;12.20
32895;DHT22;19251;49.484;8.260;2023-06-24T22:29:00;23.10;12.90
32895;DHT22;19251;49.484;8.260;2023-06-24T22:34:02;23.00;13.20
32895;DHT22;19251;49.484;8.260;2023-06-24T22:39:05;22.90;13.10
32895;DHT22;19251;49.484;8.260;2023-06-24T22:44:07;22.70;13.90
32895;DHT22;19251;49.484;8.260;2023-06-24T22:49:09;22.70;13.80
32895;DHT22;19251;49.484;8.260;2023-06-24T22:54:11;22.60;13.60
32895;DHT22;19251;49.484;8.260;2023-06-24T23:04:17;22.40;14.10
32895;DHT22;19251;49.484;8.260;2023-06-24T23:14:22;22.20;14.50
32895;DHT22;19251;49.484;8.260;2023-06-24T23:24:27;21.90;14.80
32895;DHT22;19251;49.484;8.260;2023-06-24T23:29:31;21.80;15.40
32895;DHT22;19251;49.484;8.260;2023-06-24T23:34:38;21.70;15.60
32895;DHT22;19251;49.484;8.260;2023-06-24T23:39:42;21.70;16.00
32895;DHT22;19251;49.484;8.260;2023-06-24T23:49:49;21.70;15.90
32895;DHT22;19251;49.484;8.260;2023-06-24T23:59:54;21.40;16.40
